TXL weather

Berlin-Tegel Airport
Berlin, Berlin, Germany

Public forecast

Using degrees Celsius for public forecast. Weather courtesy of forecast.io.

Current aviation weather report (METAR) for Berlin-Tegel Airport

Retrieved 2019/10/19 21:20 UTC (0 seconds ago):

EDDT 192120Z 15005KT CAVOK 13/11 Q1009

Aviation forecast (TAF) for Berlin-Tegel Airport

Retrieved 2019/10/19 18:27 UTC (3 hours ago):

TAF EDDT 191700Z 1918/2018 16005KT CAVOK BECMG 2014/2017 VRB03KT